Goshen, Virginia
Current Conditions -  °F | °C
As of 11:15 AM on Monday 26 Jan 2015 (Local Time) from KHSP Reporting Station
Moderate Fog Moderate Fog  
Wind Chill: 33°   Ceiling: 200
Heat Index: 33°   Visibility: 0mi
Dew Point: 33°   Wind: 0mph
Humidity: 100%   Direction: NA
Pressure: 29.58"   Gusts: NA
Location:  37.99°N, 79.5°W
Report Text: KHSP 261615Z AUTO 00000KT M1/4SM FG OVC002 01/01 A2958 RMK AO2 T00070007
Loading
Personal Weather Stations






























Interactive Weather Map New forecast layout! Learn more

10-Day Weather Forecast

Advertisements
Track Severe Weather on mobile